Disclaimer

Please do not use the information listed here in-flight or in-navigation, as they are not provided to us by the airports but are provided by volunteers, so they might be outdated.

Search


Regions


Airport information page

Radio informations:
Tower (TWR) - 119.15 MHz
Approach (APP) - 119.15 MHz

Airport informations:
Latitude: 48° 38' 16.22" N
Longitude: 019° 08' 02.79" E
Elevation: 1043 feet - 318 meters
Operating hours: Remarks
Operating agency: Military-civil joint use airport
Timezone: UTC+1(+2DT)
Fuel: N/A

Runway information:
18/36 - 7678 x 197 feet< - >2340 x 60 meters

Recent METARs:
LZSL 210200Z 00000KT 4500 BR OVC023 03/03 Q1014
LZSL 210230Z 00000KT 5000 BR OVC023 03/02 Q1014
LZSL 210300Z 11002KT 8000 OVC028 03/03 Q1014

Airport on the map: